EWG9TL LEPA-EDDS
Flight info
| Callsign | EWG9TL |
|---|---|
| Flight time | N/A |
| Altitude | 36000 |
| Route | MEROS N853 LUMAS DCT MAXIR DCT LUSOL DCT BODRU DCT OKTET DCT IRMAR DCT KINES DCT VANAS DCT MOBLO DCT LAMUR DCT KORED DCT BERSU N871 DITON T163 ZUE T125 REUTL REUTL5A |
| Aircraft | A320/M-SDE3FGHIRWY/LB1 |
Departure
| Time | 2026-05-01 09:37 |
|---|---|
| Airport | Palma de Mallorca Airport (LEPA) |
Arrival
| Time | N/A |
|---|---|
| Airport | Stuttgart Airport (EDDS) |
| Time | Latitude | Longitude | Altitude | Speed | Heading |
|---|---|---|---|---|---|
| 2026-05-01 09:11 | 39.54713 | 2.73659 | 36 ft | 0 kts | 58° |
| 2026-05-01 09:28 | 39.54701 | 2.73634 | 38 ft | 3 kts | 58° |
| 2026-05-01 09:28 | 39.54691 | 2.73609 | 36 ft | 4 kts | 89° |
| 2026-05-01 09:28 | 39.54700 | 2.73584 | 36 ft | 4 kts | 149° |
| 2026-05-01 09:29 | 39.54732 | 2.73560 | 38 ft | 1 kts | 149° |
| 2026-05-01 09:33 | 39.54718 | 2.73571 | 36 ft | 5 kts | 149° |
| 2026-05-01 09:33 | 39.54663 | 2.73614 | 38 ft | 12 kts | 151° |
| 2026-05-01 09:33 | 39.54541 | 2.73603 | 38 ft | 9 kts | 239° |
| 2026-05-01 09:34 | 39.54504 | 2.73524 | 38 ft | 10 kts | 238° |
| 2026-05-01 09:34 | 39.54462 | 2.73438 | 38 ft | 15 kts | 238° |
| 2026-05-01 09:34 | 39.54349 | 2.73196 | 38 ft | 14 kts | 238° |
| 2026-05-01 09:35 | 39.54299 | 2.73091 | 38 ft | 13 kts | 238° |
| 2026-05-01 09:35 | 39.54213 | 2.73140 | 38 ft | 12 kts | 90° |
| 2026-05-01 09:35 | 39.54214 | 2.73260 | 38 ft | 16 kts | 90° |
| 2026-05-01 09:36 | 39.54243 | 2.73417 | 38 ft | 21 kts | 58° |
| 2026-05-01 09:36 | 39.54377 | 2.73700 | 38 ft | 68 kts | 58° |
| 2026-05-01 09:36 | 39.54734 | 2.74453 | 39 ft | 126 kts | 59° |
| 2026-05-01 09:36 | 39.55254 | 2.75554 | 336 ft | 145 kts | 58° |
| 2026-05-01 09:37 | 39.55760 | 2.76642 | 1135 ft | 141 kts | 59° |
| 2026-05-01 09:37 | 39.56856 | 2.79052 | 2011 ft | 177 kts | 60° |
| 2026-05-01 09:37 | 39.57513 | 2.80493 | 2452 ft | 192 kts | 60° |
| 2026-05-01 09:38 | 39.58932 | 2.83607 | 3598 ft | 208 kts | 61° |
| 2026-05-01 09:38 | 39.59679 | 2.85242 | 4337 ft | 213 kts | 61° |
| 2026-05-01 09:38 | 39.60440 | 2.86905 | 5109 ft | 216 kts | 62° |
| 2026-05-01 09:39 | 39.61986 | 2.90301 | 6617 ft | 223 kts | 61° |
| 2026-05-01 09:39 | 39.62787 | 2.92104 | 7047 ft | 242 kts | 63° |
| 2026-05-01 09:39 | 39.63650 | 2.94101 | 7406 ft | 264 kts | 62° |
| 2026-05-01 09:40 | 39.64569 | 2.96234 | 7983 ft | 276 kts | 62° |
| 2026-05-01 09:40 | 39.66497 | 3.00707 | 9359 ft | 292 kts | 61° |
| 2026-05-01 09:40 | 39.67504 | 3.03033 | 10087 ft | 298 kts | 61° |
| 2026-05-01 09:41 | 39.68541 | 3.05425 | 10570 ft | 314 kts | 62° |
| 2026-05-01 09:41 | 39.70821 | 3.10690 | 11298 ft | 348 kts | 61° |
| 2026-05-01 09:41 | 39.72017 | 3.13459 | 11932 ft | 355 kts | 60° |
| 2026-05-01 09:42 | 39.73229 | 3.16269 | 12669 ft | 357 kts | 60° |
| 2026-05-01 09:42 | 39.74448 | 3.19097 | 13387 ft | 361 kts | 59° |
| 2026-05-01 09:42 | 39.76917 | 3.24835 | 14728 ft | 366 kts | 59° |
| 2026-05-01 09:43 | 39.80076 | 3.30061 | 15955 ft | 371 kts | 47° |
| 2026-05-01 09:43 | 39.81778 | 3.32602 | 16580 ft | 374 kts | 47° |
| 2026-05-01 09:43 | 39.83490 | 3.35164 | 17184 ft | 377 kts | 48° |
| 2026-05-01 09:44 | 39.86932 | 3.40331 | 18366 ft | 383 kts | 48° |
| 2026-05-01 09:44 | 39.88683 | 3.42965 | 18896 ft | 386 kts | 48° |
| 2026-05-01 09:44 | 39.90450 | 3.45623 | 19404 ft | 389 kts | 48° |
| 2026-05-01 09:45 | 39.92229 | 3.48303 | 19902 ft | 393 kts | 48° |
| 2026-05-01 09:45 | 39.95821 | 3.53728 | 20882 ft | 399 kts | 48° |